Lorton, Virginia
Current Conditions -  °F | °C
As of 2:58 PM on Friday 21 Nov 2014 (Local Time) from KDAA Reporting Station
Clear Clear  
Wind Chill: 30°   Ceiling: Unl
Heat Index: 37°   Visibility: 10mi
Dew Point:   Wind: 10mph
Humidity: 27%   Direction: 300°WNW
Pressure: 30.48"   Gusts: NA
Location:  38.7°N, 77.21°W
Report Text: KDAA 211958Z AUTO 30009KT 10SM CLR 03/M14 A3048 RMK AO2 SLP326 T00301145
Loading
Personal Weather Stations






























Interactive Weather Map New forecast layout! Learn more

10-Day Weather Forecast

Advertisements
Track Severe Weather on mobile